207-й км

Карта отелей и гостиниц, располагающихся рядом с аэропортом 207-й км :

207-й км Ханты-Мансийский автономный округ - Югра 63° 5' 0.3012" N, 60° 25' 53.1012" E
207-й км Ханты-Мансийский автономный округ - Югра 63° 5' 0.3012" N, 60° 25' 53.1012" E
Код аэродрома ИКАО
HA7P
Код аэродрома RU
ХА7П
Координаты
N63.08342° E060.43142°
Превышение над уровнем моря
185
Основная полоса
Курс магнитный
Длина основной ВПП
Ширина основной ВПП
Покрытие основной ВПП
Твёрдое
Освещение ВПП
Нет
Тип: 
Вертодром
Класс аэродрома: 
Принадлежность: 
ГА
Статус: 
Действующий
Сайт: 
E-mail аэродрома: 
Страна: 
Россия
Регион: 
Ханты-Мансийский автономный округ - Югра
Город: 
Дополнительная информация: 

Найти трансфер

С помощью этой формы Вы можете найти трансфер из аэропорта 207-й км в город, аэропорт или вокзал:

Карта места

Javascript is required to view this map.

Погода в аэропортах:

Авиационная погода в Сургуте

Регион: 
Погода METAR: 
USRR 251530Z 12004MPS 2100 R07/P2000N BR BKN003 M36/M39 Q1034 R07/39//42 TEMPO 2000 SN BR RMK OBST OBSC QFE771
Время наблюдения
2021-01-25T15:30:00Z
Температура C
-36.0
Точка росы
-39.0
Направление ветра
120
Скорость ветра (узлы)
8
Метео видимость
1.3
Явления погоды
BR
Условия полета
LIFR
Аэропорт подробнее: 

Авиационная погода в Алматы

Регион: 
Погода METAR: 
UAAA 251530Z VRB01MPS 2100 BR FU SCT014 BKN100 M07/M09 Q1030 R23R/3///60 R23L/3///45 TEMPO 1500 BR FU
Время наблюдения
2021-01-25T15:30:00Z
Температура C
-7.0
Точка росы
-9.0
Направление ветра
0
Скорость ветра (узлы)
2
Метео видимость
1.3
Явления погоды
BR FU
Условия полета
IFR
Аэропорт подробнее: 

Авиационная погода в Гостомеле

Регион: 
Погода METAR: 
UKKM 251530Z AUTO 13006MPS 4800 -RA OVC005/// 06/06 Q0995
Время наблюдения
2021-01-25T15:30:00Z
Температура C
6.0
Точка росы
6.0
Направление ветра
130
Скорость ветра (узлы)
12
Метео видимость
2.98
Явления погоды
-RA
Условия полета
IFR
Аэропорт подробнее: 

Авиационная погода в Могилёве

Регион: 
Погода METAR: 
UMOO 251300Z 11005MPS 1300 R13/1300 BR OVC001 02/02 Q1001 R13/290068 NOSIG RMK QBB040
Время наблюдения
2021-01-25T13:00:00Z
Температура C
2.0
Точка росы
2.0
Направление ветра
110
Скорость ветра (узлы)
10
Метео видимость
0.81
Явления погоды
BR
Условия полета
LIFR
Аэропорт подробнее: